createdAt,value
2018-07-31T00:01:17.419Z,420.70
2018-07-31T00:03:44.617Z,394.33
2018-07-31T00:06:18.134Z,412.23
2018-07-31T00:08:46.081Z,400.93
2018-07-31T00:11:13.295Z,404.53
2018-07-31T00:13:40.517Z,406.93
2018-07-31T00:16:07.734Z,391.33
2018-07-31T00:18:34.938Z,414.67
2018-07-31T00:21:02.151Z,407.43
2018-07-31T00:23:29.415Z,389.00
2018-07-31T00:25:56.618Z,396.43
2018-07-31T00:28:23.814Z,417.20
2018-07-31T00:30:50.999Z,383.33
2018-07-31T00:33:18.199Z,416.13
2018-07-31T00:35:45.383Z,384.43
2018-07-31T00:38:12.571Z,384.63
2018-07-31T00:40:39.907Z,390.10
2018-07-31T00:43:07.108Z,371.97
2018-07-31T00:45:34.294Z,379.70
2018-07-31T00:48:01.465Z,406.57
2018-07-31T00:50:28.647Z,375.87
2018-07-31T00:52:55.945Z,372.43
2018-07-31T00:55:23.143Z,406.70
2018-07-31T00:57:50.340Z,378.13
2018-07-31T01:00:17.551Z,365.77
2018-07-31T01:02:44.883Z,407.07
2018-07-31T01:05:12.064Z,410.40
2018-07-31T01:07:39.263Z,390.93
2018-07-31T01:10:06.457Z,385.90
2018-07-31T01:12:33.672Z,392.57
2018-07-31T01:15:00.879Z,377.40
2018-07-31T01:17:28.063Z,383.80
2018-07-31T01:19:55.244Z,383.93
2018-07-31T01:22:22.466Z,383.80
2018-07-31T01:24:49.668Z,368.47
2018-07-31T01:27:16.860Z,392.97
2018-07-31T01:29:44.047Z,367.27
2018-07-31T01:32:11.259Z,356.30
2018-07-31T01:34:38.443Z,358.23
2018-07-31T01:37:05.633Z,353.77
2018-07-31T01:39:32.835Z,381.63
2018-07-31T01:42:00.032Z,361.43
2018-07-31T01:44:27.251Z,355.70
2018-07-31T01:46:54.723Z,371.93
2018-07-31T01:49:21.920Z,377.20
2018-07-31T01:51:49.107Z,359.20
2018-07-31T01:54:16.299Z,359.90
2018-07-31T01:56:43.499Z,381.93
2018-07-31T01:59:10.719Z,358.37
2018-07-31T02:01:37.920Z,365.90
2018-07-31T02:04:05.264Z,358.03
2018-07-31T02:06:32.463Z,352.33
2018-07-31T02:08:59.662Z,368.33
2018-07-31T02:11:26.864Z,372.97
2018-07-31T02:13:54.232Z,341.50
2018-07-31T02:16:21.829Z,344.40
2018-07-31T02:18:49.040Z,341.17
2018-07-31T02:21:16.224Z,358.27
2018-07-31T02:23:43.613Z,353.27
2018-07-31T02:26:10.846Z,359.93
2018-07-31T02:28:38.073Z,362.13
2018-07-31T02:31:05.419Z,354.70
2018-07-31T02:33:32.629Z,362.73
2018-07-31T02:35:59.828Z,356.13
2018-07-31T02:38:27.028Z,348.70
2018-07-31T02:40:54.240Z,347.13
2018-07-31T02:43:21.475Z,346.30
2018-07-31T02:45:48.698Z,348.93
2018-07-31T02:48:15.889Z,355.90
2018-07-31T02:50:43.092Z,359.67
2018-07-31T02:53:10.303Z,340.97
2018-07-31T02:55:37.489Z,351.63
2018-07-31T02:58:04.747Z,358.33
2018-07-31T03:00:31.957Z,344.80
2018-07-31T03:02:59.160Z,355.87
2018-07-31T03:05:26.367Z,341.73
2018-07-31T03:07:53.559Z,347.03
2018-07-31T03:10:20.758Z,351.20
2018-07-31T03:12:47.967Z,334.07
2018-07-31T03:15:15.170Z,335.27
2018-07-31T03:17:42.380Z,330.70
2018-07-31T03:20:09.595Z,346.33
2018-07-31T03:22:36.858Z,356.10
2018-07-31T03:25:04.498Z,328.53
2018-07-31T03:27:31.710Z,334.47
2018-07-31T03:29:58.925Z,343.10
2018-07-31T03:32:26.121Z,335.33
2018-07-31T03:34:53.871Z,313.87
2018-07-31T03:37:21.107Z,342.40
2018-07-31T03:39:48.392Z,337.23
2018-07-31T03:42:15.596Z,327.10
2018-07-31T03:44:42.799Z,319.40
2018-07-31T03:47:10.474Z,319.87
2018-07-31T03:49:37.940Z,323.83
2018-07-31T03:52:05.410Z,318.67
2018-07-31T03:54:32.592Z,325.70
2018-07-31T03:56:59.828Z,316.70
2018-07-31T03:59:27.044Z,349.00
2018-07-31T04:01:54.259Z,336.37
2018-07-31T04:04:21.500Z,317.37
2018-07-31T04:07:03.639Z,318.27
2018-07-31T04:09:31.559Z,302.97
2018-07-31T04:11:58.780Z,316.47
2018-07-31T04:14:25.972Z,309.27
2018-07-31T04:16:53.214Z,312.27
2018-07-31T04:19:20.375Z,302.13
2018-07-31T04:21:47.584Z,300.67
2018-07-31T04:24:15.015Z,304.00
2018-07-31T04:26:42.235Z,330.00
2018-07-31T04:29:09.438Z,325.13
2018-07-31T04:31:36.658Z,326.27
2018-07-31T04:34:03.857Z,312.40
2018-07-31T04:36:31.073Z,342.07
2018-07-31T04:38:58.279Z,313.80
2018-07-31T04:41:25.512Z,320.70
2018-07-31T04:43:52.705Z,324.47
2018-07-31T04:46:19.912Z,306.90
2018-07-31T04:48:47.111Z,332.73
2018-07-31T04:51:14.328Z,315.20
2018-07-31T04:53:41.525Z,343.10
2018-07-31T04:56:08.758Z,326.30
2018-07-31T04:58:35.952Z,336.20
2018-07-31T05:01:03.163Z,334.57
2018-07-31T05:03:30.363Z,337.60
2018-07-31T05:05:57.557Z,336.07
2018-07-31T05:08:24.750Z,335.37
2018-07-31T05:10:51.955Z,357.97
2018-07-31T05:13:19.167Z,338.30
2018-07-31T05:15:46.791Z,361.10
2018-07-31T05:18:14.057Z,337.77
2018-07-31T05:20:41.227Z,360.70
2018-07-31T05:23:08.424Z,349.97
2018-07-31T05:25:35.624Z,373.97
2018-07-31T05:28:02.868Z,359.70
2018-07-31T05:30:30.068Z,371.03
2018-07-31T05:32:57.325Z,387.00
2018-07-31T05:35:24.517Z,362.27
2018-07-31T05:37:51.722Z,377.97
2018-07-31T05:40:18.924Z,370.67
2018-07-31T05:42:46.228Z,370.40
2018-07-31T05:45:13.424Z,371.80
2018-07-31T05:47:40.642Z,362.20
2018-07-31T05:50:08.671Z,369.17
2018-07-31T05:52:36.045Z,378.10
2018-07-31T05:55:03.547Z,377.57
2018-07-31T05:57:30.829Z,384.80
2018-07-31T05:59:58.012Z,380.27
2018-07-31T06:02:25.221Z,392.20
2018-07-31T06:04:52.423Z,379.57
2018-07-31T06:07:19.639Z,372.50
2018-07-31T06:09:46.979Z,397.43
2018-07-31T06:12:14.176Z,363.53
2018-07-31T06:14:41.378Z,384.63
2018-07-31T06:17:08.588Z,411.87
2018-07-31T06:19:35.796Z,371.30
2018-07-31T06:22:03.031Z,407.20
2018-07-31T06:24:30.238Z,388.20
2018-07-31T06:26:57.449Z,371.63
2018-07-31T06:29:24.658Z,373.40
2018-07-31T06:31:51.858Z,378.77
2018-07-31T06:34:19.087Z,396.93
2018-07-31T06:36:46.328Z,393.30
2018-07-31T06:39:13.535Z,410.67
2018-07-31T06:41:40.719Z,394.43
2018-07-31T06:44:07.929Z,402.30
2018-07-31T06:46:35.452Z,401.87
2018-07-31T06:49:02.691Z,403.83
2018-07-31T06:51:29.897Z,404.20
2018-07-31T06:53:57.105Z,412.53
2018-07-31T06:56:24.296Z,405.77
2018-07-31T06:58:51.520Z,424.10
2018-07-31T07:01:18.711Z,447.53
2018-07-31T07:03:45.919Z,457.77
2018-07-31T07:06:13.572Z,477.27
2018-07-31T07:08:40.771Z,550.73
2018-07-31T07:11:07.996Z,565.07
2018-07-31T07:13:35.368Z,636.53
2018-07-31T07:16:02.724Z,671.23
2018-07-31T07:18:30.095Z,679.03
2018-07-31T07:20:57.320Z,730.27
2018-07-31T07:23:24.724Z,726.80
2018-07-31T07:25:51.928Z,744.60
2018-07-31T07:28:19.132Z,783.37
2018-07-31T07:30:46.342Z,768.40
2018-07-31T07:33:13.528Z,802.73
2018-07-31T07:35:40.772Z,807.30
2018-07-31T07:38:07.976Z,799.47
2018-07-31T07:40:35.173Z,789.73
2018-07-31T07:43:02.399Z,788.80
2018-07-31T07:45:29.619Z,767.20
2018-07-31T07:47:56.852Z,795.97
2018-07-31T07:50:24.058Z,795.07
2018-07-31T07:52:51.363Z,817.23
2018-07-31T07:55:18.535Z,854.37
2018-07-31T07:57:46.045Z,825.73
2018-07-31T08:00:13.268Z,827.37
2018-07-31T08:02:40.500Z,811.33
2018-07-31T08:05:08.091Z,821.27
2018-07-31T08:07:35.326Z,826.77
2018-07-31T08:10:02.564Z,829.70
2018-07-31T08:12:29.918Z,828.33
2018-07-31T08:14:57.399Z,824.77
2018-07-31T08:17:24.611Z,867.97
2018-07-31T08:19:51.811Z,834.67
2018-07-31T08:22:19.004Z,834.43
2018-07-31T08:24:46.201Z,856.53
2018-07-31T08:27:13.419Z,863.10
2018-07-31T08:29:40.620Z,867.13
2018-07-31T08:32:07.901Z,842.77
2018-07-31T08:34:35.171Z,858.13
2018-07-31T08:37:02.323Z,852.47
2018-07-31T08:39:29.518Z,866.60
2018-07-31T08:41:56.725Z,875.30
2018-07-31T08:44:23.922Z,832.77
2018-07-31T08:46:51.143Z,856.10
2018-07-31T08:49:18.364Z,883.07
2018-07-31T08:51:45.554Z,868.00
2018-07-31T08:54:12.763Z,858.67
2018-07-31T08:56:39.980Z,879.05
2018-07-31T08:59:07.159Z,866.30
2018-07-31T09:01:34.371Z,874.80
2018-07-31T09:04:01.604Z,867.58
2018-07-31T09:06:28.814Z,869.05
2018-07-31T09:08:56.084Z,868.23
2018-07-31T09:11:23.192Z,850.20
2018-07-31T09:13:50.376Z,867.53
2018-07-31T09:16:17.556Z,840.15
2018-07-31T09:18:44.794Z,847.52
2018-07-31T09:21:11.964Z,886.07
2018-07-31T09:23:39.163Z,873.72
2018-07-31T09:26:06.353Z,866.00
2018-07-31T09:28:33.528Z,887.18
2018-07-31T09:31:06.654Z,883.42
2018-07-31T09:33:33.695Z,880.18
2018-07-31T09:36:00.856Z,875.70
2018-07-31T09:38:28.020Z,861.17
2018-07-31T09:40:55.187Z,892.58
2018-07-31T09:43:22.339Z,891.38
2018-07-31T09:45:49.492Z,867.83
2018-07-31T09:48:16.816Z,884.28
2018-07-31T09:50:44.074Z,880.78
2018-07-31T09:53:12.183Z,869.17
2018-07-31T09:55:39.356Z,875.70
2018-07-31T09:58:06.530Z,854.48
2018-07-31T10:00:39.536Z,878.90
2018-07-31T10:03:06.737Z,906.30
2018-07-31T10:05:34.112Z,902.02
2018-07-31T10:08:01.279Z,897.80
2018-07-31T10:10:28.457Z,877.48
2018-07-31T10:12:55.623Z,877.35
2018-07-31T10:15:22.792Z,876.82
2018-07-31T10:17:50.066Z,876.02
2018-07-31T10:20:17.199Z,884.15
2018-07-31T10:22:44.419Z,866.10
2018-07-31T10:25:11.565Z,882.40
2018-07-31T10:27:38.964Z,886.92
2018-07-31T10:30:07.472Z,885.70
2018-07-31T10:32:34.644Z,882.32
2018-07-31T10:35:01.827Z,877.77
2018-07-31T10:37:29.050Z,849.92
2018-07-31T10:39:56.206Z,880.15
2018-07-31T10:42:23.382Z,872.08
2018-07-31T10:44:50.720Z,872.30
2018-07-31T10:47:17.884Z,874.60
2018-07-31T10:49:45.045Z,888.67
2018-07-31T10:52:13.011Z,867.83
2018-07-31T10:54:40.189Z,873.40
2018-07-31T10:57:07.362Z,861.52
2018-07-31T10:59:34.570Z,873.62
2018-07-31T11:02:01.740Z,856.20
2018-07-31T11:04:28.900Z,876.30
2018-07-31T11:06:56.071Z,875.33
2018-07-31T11:09:23.276Z,864.72
2018-07-31T11:11:50.463Z,854.25
2018-07-31T11:14:17.699Z,850.30
2018-07-31T11:16:44.905Z,867.77
2018-07-31T11:19:12.127Z,864.20
2018-07-31T11:21:39.355Z,876.42
2018-07-31T11:24:06.566Z,876.13
2018-07-31T11:26:33.771Z,862.83
2018-07-31T11:29:00.973Z,875.35
2018-07-31T11:31:28.267Z,863.55
2018-07-31T11:33:55.468Z,844.97
2018-07-31T11:36:22.682Z,858.10
2018-07-31T11:38:49.891Z,869.58
2018-07-31T11:41:17.090Z,855.67
2018-07-31T11:43:44.304Z,865.87
2018-07-31T11:46:11.504Z,868.90
2018-07-31T11:48:38.699Z,847.80
2018-07-31T11:51:05.952Z,847.40
2018-07-31T11:53:33.159Z,869.05
2018-07-31T11:56:00.358Z,881.38
2018-07-31T11:58:27.600Z,854.60
2018-07-31T12:00:54.801Z,858.65
2018-07-31T12:03:22.003Z,875.88
2018-07-31T12:05:49.344Z,851.88
2018-07-31T12:08:16.538Z,884.60
2018-07-31T12:10:43.759Z,876.40
2018-07-31T12:13:10.961Z,875.35
2018-07-31T12:15:38.164Z,861.58
2018-07-31T12:18:05.434Z,865.95
2018-07-31T12:20:32.638Z,882.70
2018-07-31T12:22:59.827Z,869.45
2018-07-31T12:25:27.023Z,871.80
2018-07-31T12:27:54.238Z,878.52
2018-07-31T12:30:21.455Z,856.95
2018-07-31T12:32:48.713Z,857.35
2018-07-31T12:35:15.880Z,856.20
2018-07-31T12:37:43.081Z,891.23
2018-07-31T12:40:10.287Z,874.58
2018-07-31T12:42:37.499Z,874.83
2018-07-31T12:45:04.723Z,854.37
2018-07-31T12:47:31.955Z,864.10
2018-07-31T12:49:59.196Z,864.87
2018-07-31T12:52:26.664Z,878.35
2018-07-31T12:54:53.932Z,887.78
2018-07-31T12:57:21.141Z,878.82
2018-07-31T12:59:48.356Z,879.45
2018-07-31T13:02:15.546Z,866.53
2018-07-31T13:04:42.771Z,868.07
2018-07-31T13:07:09.964Z,868.52
2018-07-31T13:09:37.184Z,850.50
2018-07-31T13:12:04.681Z,884.47
2018-07-31T13:14:32.156Z,876.75
2018-07-31T13:16:59.354Z,854.40
2018-07-31T13:19:26.545Z,843.95
2018-07-31T13:21:53.764Z,877.70
2018-07-31T13:24:20.963Z,861.08
2018-07-31T13:26:48.169Z,875.85
2018-07-31T13:29:15.375Z,861.10
2018-07-31T13:31:42.583Z,876.07
2018-07-31T13:34:09.779Z,856.70
2018-07-31T13:36:36.989Z,868.35
2018-07-31T13:39:07.235Z,875.38
2018-07-31T13:41:34.465Z,856.08
2018-07-31T13:44:01.714Z,848.45
2018-07-31T13:46:28.863Z,867.25
2018-07-31T13:48:56.051Z,850.45
2018-07-31T13:51:23.288Z,849.92
2018-07-31T13:53:50.511Z,860.48
2018-07-31T13:56:17.729Z,838.15
2018-07-31T13:58:44.928Z,883.27
2018-07-31T14:01:12.144Z,858.10
2018-07-31T14:03:39.356Z,865.95
2018-07-31T14:06:06.594Z,855.10
2018-07-31T14:08:33.839Z,831.95
2018-07-31T14:11:01.037Z,854.20
2018-07-31T14:13:28.239Z,825.93
2018-07-31T14:15:55.462Z,843.73
2018-07-31T14:18:22.677Z,878.00
2018-07-31T14:20:49.892Z,843.28
2018-07-31T14:23:17.087Z,834.67
2018-07-31T14:25:44.328Z,850.62
2018-07-31T14:28:11.549Z,835.28
2018-07-31T14:30:38.789Z,845.35
2018-07-31T14:33:05.816Z,869.13
2018-07-31T14:35:33.021Z,880.80
2018-07-31T14:38:00.224Z,838.50
2018-07-31T14:40:27.420Z,866.23
2018-07-31T14:42:54.669Z,870.67
2018-07-31T14:45:21.851Z,860.80
2018-07-31T14:47:49.039Z,861.67
2018-07-31T14:50:16.240Z,829.93
2018-07-31T14:52:43.431Z,825.73
2018-07-31T14:55:10.651Z,830.67
2018-07-31T14:57:37.895Z,844.80
2018-07-31T15:00:05.610Z,845.83
2018-07-31T15:02:32.910Z,823.90
2018-07-31T15:05:00.100Z,852.67
2018-07-31T15:07:27.318Z,817.73
2018-07-31T15:09:54.518Z,818.40
2018-07-31T15:12:21.728Z,829.50
2018-07-31T15:14:48.985Z,849.87
2018-07-31T15:17:16.189Z,832.70
2018-07-31T15:19:43.403Z,821.67
2018-07-31T15:22:10.604Z,819.53
2018-07-31T15:24:37.827Z,849.83
2018-07-31T15:27:05.019Z,826.50
2018-07-31T15:29:32.237Z,821.50
2018-07-31T15:31:59.439Z,850.13
2018-07-31T15:34:26.635Z,818.47
2018-07-31T15:36:53.834Z,851.33
2018-07-31T15:39:21.047Z,825.37
2018-07-31T15:41:48.276Z,854.27
2018-07-31T15:44:15.489Z,820.37
2018-07-31T15:46:42.699Z,822.50
2018-07-31T15:49:09.907Z,812.37
2018-07-31T15:51:37.101Z,830.33
2018-07-31T15:54:04.392Z,836.43
2018-07-31T15:56:31.603Z,841.27
2018-07-31T15:58:58.814Z,844.27
2018-07-31T16:01:27.661Z,809.20
2018-07-31T16:03:54.877Z,806.60
2018-07-31T16:06:22.116Z,819.30
2018-07-31T16:08:49.336Z,846.57
2018-07-31T16:11:16.556Z,800.00
2018-07-31T16:13:43.756Z,826.67
2018-07-31T16:16:11.028Z,802.20
2018-07-31T16:18:38.256Z,793.80
2018-07-31T16:21:05.887Z,834.33
2018-07-31T16:23:33.145Z,797.43
2018-07-31T16:26:00.406Z,799.90
2018-07-31T16:28:27.597Z,782.47
2018-07-31T16:30:54.807Z,781.33
2018-07-31T16:33:22.012Z,777.47
2018-07-31T16:35:49.293Z,803.33
2018-07-31T16:38:16.527Z,808.57
2018-07-31T16:40:43.723Z,797.87
2018-07-31T16:43:10.943Z,786.07
2018-07-31T16:45:38.191Z,799.67
2018-07-31T16:48:05.468Z,815.77
2018-07-31T16:50:32.744Z,814.50
2018-07-31T16:52:59.995Z,786.77
2018-07-31T16:55:27.271Z,772.37
2018-07-31T16:57:54.567Z,780.77
2018-07-31T17:00:21.804Z,777.20
2018-07-31T17:02:49.060Z,765.33
2018-07-31T17:05:16.322Z,792.03
2018-07-31T17:07:43.776Z,809.83
2018-07-31T17:10:11.255Z,787.43
2018-07-31T17:12:38.672Z,776.40
2018-07-31T17:15:06.339Z,773.10
2018-07-31T17:17:33.582Z,778.20
2018-07-31T17:20:00.916Z,775.47
2018-07-31T17:22:28.148Z,776.40
2018-07-31T17:24:55.452Z,762.00
2018-07-31T17:27:22.755Z,771.63
2018-07-31T17:29:49.991Z,759.47
2018-07-31T17:32:17.207Z,766.47
2018-07-31T17:34:44.411Z,759.97
2018-07-31T17:37:11.651Z,761.60
2018-07-31T17:39:38.959Z,746.90
2018-07-31T17:42:06.236Z,739.60
2018-07-31T17:44:33.470Z,733.70
2018-07-31T17:47:00.752Z,743.77
2018-07-31T17:49:28.077Z,712.80
2018-07-31T17:51:55.359Z,693.93
2018-07-31T17:54:22.577Z,712.13
2018-07-31T17:56:49.840Z,719.20
2018-07-31T17:59:17.368Z,679.87
2018-07-31T18:01:44.652Z,687.00
2018-07-31T18:04:11.952Z,659.13
2018-07-31T18:06:39.232Z,667.40
2018-07-31T18:09:07.655Z,679.13
2018-07-31T18:11:35.036Z,661.17
2018-07-31T18:14:02.452Z,631.10
2018-07-31T18:16:29.591Z,633.63
2018-07-31T18:18:56.909Z,663.60
2018-07-31T18:21:24.128Z,619.77
2018-07-31T18:23:51.490Z,614.93
2018-07-31T18:26:18.940Z,612.67
2018-07-31T18:28:46.243Z,628.47
2018-07-31T18:31:13.742Z,629.10
2018-07-31T18:33:40.995Z,615.47
2018-07-31T18:36:08.271Z,600.27
2018-07-31T18:38:35.571Z,592.97
2018-07-31T18:41:03.065Z,607.23
2018-07-31T18:43:30.359Z,605.27
2018-07-31T18:45:57.580Z,587.30
2018-07-31T18:48:24.957Z,587.03
2018-07-31T18:50:52.222Z,575.80
2018-07-31T18:53:19.482Z,589.67
2018-07-31T18:55:46.850Z,605.20
2018-07-31T18:58:14.162Z,590.43
2018-07-31T19:00:41.485Z,616.60
2018-07-31T19:03:08.900Z,571.43
2018-07-31T19:05:36.128Z,570.87
2018-07-31T19:08:03.630Z,554.77
2018-07-31T19:10:30.884Z,573.83
2018-07-31T19:12:58.186Z,579.83
2018-07-31T19:15:25.415Z,550.87
2018-07-31T19:17:52.653Z,559.33
2018-07-31T19:20:19.932Z,565.77
2018-07-31T19:22:47.232Z,560.50
2018-07-31T19:25:14.539Z,573.27
2018-07-31T19:27:41.882Z,551.63
2018-07-31T19:30:09.144Z,554.57
2018-07-31T19:32:36.431Z,546.43
2018-07-31T19:35:03.801Z,538.50
2018-07-31T19:37:31.136Z,558.90
2018-07-31T19:39:58.356Z,531.63
2018-07-31T19:42:25.879Z,514.37
2018-07-31T19:44:53.082Z,517.30
2018-07-31T19:47:20.331Z,544.87
2018-07-31T19:49:47.508Z,529.83
2018-07-31T19:52:14.802Z,527.10
2018-07-31T19:54:41.992Z,520.97
2018-07-31T19:57:09.248Z,568.03
2018-07-31T19:59:36.951Z,528.50
2018-07-31T20:02:04.217Z,544.40
2018-07-31T20:04:31.428Z,537.73
2018-07-31T20:06:58.724Z,552.57
2018-07-31T20:09:27.217Z,542.93
2018-07-31T20:11:55.804Z,528.23
2018-07-31T20:14:23.575Z,512.73
2018-07-31T20:16:50.951Z,524.43
2018-07-31T20:19:18.412Z,513.20
2018-07-31T20:21:45.617Z,515.40
2018-07-31T20:24:13.032Z,508.23
2018-07-31T20:26:40.383Z,521.43
2018-07-31T20:29:07.887Z,521.73
2018-07-31T20:31:35.094Z,519.27
2018-07-31T20:34:02.308Z,544.47
2018-07-31T20:36:29.538Z,522.70
2018-07-31T20:38:56.783Z,516.83
2018-07-31T20:41:23.993Z,519.87
2018-07-31T20:43:52.239Z,502.53
2018-07-31T20:46:19.430Z,522.83
2018-07-31T20:48:46.636Z,531.83
2018-07-31T20:51:13.865Z,517.20
2018-07-31T20:53:41.050Z,512.03
2018-07-31T20:56:08.241Z,497.77
2018-07-31T20:58:35.443Z,506.07
2018-07-31T21:01:02.684Z,522.63
2018-07-31T21:03:30.103Z,509.17
2018-07-31T21:05:57.324Z,492.63
2018-07-31T21:08:24.604Z,493.53
2018-07-31T21:10:51.818Z,513.70
2018-07-31T21:13:19.094Z,513.33
2018-07-31T21:15:46.351Z,511.60
2018-07-31T21:18:13.706Z,507.63
2018-07-31T21:20:40.878Z,481.50
2018-07-31T21:23:08.167Z,491.70
2018-07-31T21:25:35.679Z,475.70
2018-07-31T21:28:02.957Z,505.70
2018-07-31T21:30:30.185Z,481.80
2018-07-31T21:32:57.391Z,468.70
2018-07-31T21:35:24.675Z,481.43
2018-07-31T21:37:52.028Z,477.03
2018-07-31T21:40:19.234Z,473.63
2018-07-31T21:42:46.428Z,470.87
2018-07-31T21:45:13.638Z,468.10
2018-07-31T21:47:40.911Z,503.57
2018-07-31T21:50:08.083Z,491.03
2018-07-31T21:52:35.276Z,481.57
2018-07-31T21:55:02.557Z,478.30
2018-07-31T21:57:29.722Z,486.50
2018-07-31T21:59:56.926Z,515.10
2018-07-31T22:02:24.119Z,480.03
2018-07-31T22:04:51.344Z,469.67
2018-07-31T22:07:18.524Z,471.43
2018-07-31T22:09:45.870Z,479.43
2018-07-31T22:12:13.207Z,475.97
2018-07-31T22:14:40.779Z,464.47
2018-07-31T22:17:08.145Z,499.57
2018-07-31T22:19:35.412Z,489.37
2018-07-31T22:22:02.619Z,462.07
2018-07-31T22:24:29.840Z,492.43
2018-07-31T22:26:57.049Z,490.60
2018-07-31T22:29:24.239Z,498.47
2018-07-31T22:31:51.439Z,456.27
2018-07-31T22:34:18.635Z,453.33
2018-07-31T22:36:45.832Z,455.23
2018-07-31T22:39:13.044Z,462.90
2018-07-31T22:41:40.486Z,468.80
2018-07-31T22:44:07.671Z,481.10
2018-07-31T22:46:34.876Z,457.33
2018-07-31T22:49:02.269Z,444.37
2018-07-31T22:51:29.499Z,446.27
2018-07-31T22:53:56.709Z,452.70
2018-07-31T22:56:23.891Z,445.07
2018-07-31T22:58:51.701Z,473.83
2018-07-31T23:01:19.008Z,479.20
2018-07-31T23:03:46.221Z,449.63
2018-07-31T23:06:13.443Z,448.27
2018-07-31T23:08:40.643Z,450.73
2018-07-31T23:11:07.859Z,445.03
2018-07-31T23:13:35.063Z,448.33
2018-07-31T23:16:02.284Z,470.97
2018-07-31T23:18:29.484Z,443.70
2018-07-31T23:20:56.747Z,475.67
2018-07-31T23:23:23.895Z,434.60
2018-07-31T23:25:51.107Z,442.93
2018-07-31T23:28:18.296Z,464.17
2018-07-31T23:30:45.500Z,438.83
2018-07-31T23:33:12.702Z,440.30
2018-07-31T23:35:39.933Z,422.70
2018-07-31T23:38:07.143Z,430.17
2018-07-31T23:40:34.356Z,436.60
2018-07-31T23:43:01.560Z,452.13
2018-07-31T23:45:28.757Z,444.20
2018-07-31T23:47:55.951Z,424.10
2018-07-31T23:50:23.142Z,417.60
2018-07-31T23:52:50.356Z,433.97
2018-07-31T23:55:17.561Z,438.60
2018-07-31T23:57:44.963Z,422.33
